sensor_id;sensor_type;location;lat;lon;timestamp;P1;durP1;ratioP1;P2;durP2;ratioP2
37857;SDS011;23695;55.868;37.472;2022-09-24T00:01:11;9.35;;;6.53;;
37857;SDS011;23695;55.868;37.472;2022-09-24T00:03:42;13.75;;;6.60;;
37857;SDS011;23695;55.868;37.472;2022-09-24T00:06:11;8.40;;;6.97;;
37857;SDS011;23695;55.868;37.472;2022-09-24T00:08:41;7.68;;;6.63;;
37857;SDS011;23695;55.868;37.472;2022-09-24T00:11:08;9.15;;;7.15;;
37857;SDS011;23695;55.868;37.472;2022-09-24T00:13:38;9.95;;;7.28;;
37857;SDS011;23695;55.868;37.472;2022-09-24T00:16:06;8.73;;;6.43;;
37857;SDS011;23695;55.868;37.472;2022-09-24T00:18:33;7.22;;;5.32;;
37857;SDS011;23695;55.868;37.472;2022-09-24T00:21:09;8.30;;;5.70;;
37857;SDS011;23695;55.868;37.472;2022-09-24T00:23:36;8.73;;;5.63;;
37857;SDS011;23695;55.868;37.472;2022-09-24T00:26:03;5.75;;;5.15;;
37857;SDS011;23695;55.868;37.472;2022-09-24T00:28:49;6.80;;;4.70;;
37857;SDS011;23695;55.868;37.472;2022-09-24T00:31:16;5.20;;;4.53;;
37857;SDS011;23695;55.868;37.472;2022-09-24T00:33:44;5.72;;;4.53;;
37857;SDS011;23695;55.868;37.472;2022-09-24T00:36:10;5.53;;;4.28;;
37857;SDS011;23695;55.868;37.472;2022-09-24T00:38:40;7.18;;;4.80;;
37857;SDS011;23695;55.868;37.472;2022-09-24T00:41:07;5.68;;;4.20;;
37857;SDS011;23695;55.868;37.472;2022-09-24T00:43:34;7.22;;;4.35;;
37857;SDS011;23695;55.868;37.472;2022-09-24T00:46:13;6.38;;;4.22;;
37857;SDS011;23695;55.868;37.472;2022-09-24T00:48:41;5.82;;;4.10;;
37857;SDS011;23695;55.868;37.472;2022-09-24T00:51:09;4.88;;;3.75;;
37857;SDS011;23695;55.868;37.472;2022-09-24T00:53:38;4.20;;;3.80;;
37857;SDS011;23695;55.868;37.472;2022-09-24T00:56:05;5.70;;;4.13;;
37857;SDS011;23695;55.868;37.472;2022-09-24T00:58:34;5.57;;;3.95;;
37857;SDS011;23695;55.868;37.472;2022-09-24T01:01:02;5.28;;;3.50;;
37857;SDS011;23695;55.868;37.472;2022-09-24T01:03:30;4.30;;;3.55;;
37857;SDS011;23695;55.868;37.472;2022-09-24T01:05:58;4.82;;;3.63;;
37857;SDS011;23695;55.868;37.472;2022-09-24T01:08:25;6.30;;;3.95;;
37857;SDS011;23695;55.868;37.472;2022-09-24T01:18:48;3.45;;;3.15;;
37857;SDS011;23695;55.868;37.472;2022-09-24T01:21:26;4.50;;;3.13;;
37857;SDS011;23695;55.868;37.472;2022-09-24T01:31:51;5.82;;;3.58;;
37857;SDS011;23695;55.868;37.472;2022-09-24T01:34:21;4.10;;;2.85;;
37857;SDS011;23695;55.868;37.472;2022-09-24T01:36:52;5.65;;;2.63;;
37857;SDS011;23695;55.868;37.472;2022-09-24T01:39:21;2.95;;;2.65;;
37857;SDS011;23695;55.868;37.472;2022-09-24T01:41:48;2.88;;;2.58;;
37857;SDS011;23695;55.868;37.472;2022-09-24T01:44:16;4.70;;;2.58;;
37857;SDS011;23695;55.868;37.472;2022-09-24T01:46:44;3.17;;;2.47;;
37857;SDS011;23695;55.868;37.472;2022-09-24T01:49:11;2.80;;;2.38;;
37857;SDS011;23695;55.868;37.472;2022-09-24T01:54:08;2.85;;;1.98;;
37857;SDS011;23695;55.868;37.472;2022-09-24T01:56:38;3.67;;;2.25;;
37857;SDS011;23695;55.868;37.472;2022-09-24T02:04:17;2.17;;;1.98;;
37857;SDS011;23695;55.868;37.472;2022-09-24T02:06:48;3.13;;;2.05;;
37857;SDS011;23695;55.868;37.472;2022-09-24T02:11:56;2.40;;;2.03;;
37857;SDS011;23695;55.868;37.472;2022-09-24T02:14:24;2.15;;;1.90;;
37857;SDS011;23695;55.868;37.472;2022-09-24T02:16:51;2.72;;;2.40;;
37857;SDS011;23695;55.868;37.472;2022-09-24T02:19:20;2.90;;;2.38;;
37857;SDS011;23695;55.868;37.472;2022-09-24T02:21:48;2.83;;;2.00;;
37857;SDS011;23695;55.868;37.472;2022-09-24T02:24:18;2.10;;;1.90;;
37857;SDS011;23695;55.868;37.472;2022-09-24T02:26:45;3.83;;;2.13;;
37857;SDS011;23695;55.868;37.472;2022-09-24T02:29:12;2.28;;;2.00;;
37857;SDS011;23695;55.868;37.472;2022-09-24T02:31:41;1.73;;;1.63;;
37857;SDS011;23695;55.868;37.472;2022-09-24T02:34:10;1.95;;;1.80;;
37857;SDS011;23695;55.868;37.472;2022-09-24T02:36:50;2.40;;;1.70;;
37857;SDS011;23695;55.868;37.472;2022-09-24T02:39:17;2.42;;;1.92;;
37857;SDS011;23695;55.868;37.472;2022-09-24T02:41:45;1.60;;;1.50;;
37857;SDS011;23695;55.868;37.472;2022-09-24T02:44:15;1.83;;;1.70;;
37857;SDS011;23695;55.868;37.472;2022-09-24T02:46:43;2.10;;;1.90;;
37857;SDS011;23695;55.868;37.472;2022-09-24T02:49:10;2.08;;;1.88;;
37857;SDS011;23695;55.868;37.472;2022-09-24T02:51:37;2.10;;;1.73;;
37857;SDS011;23695;55.868;37.472;2022-09-24T02:54:04;1.75;;;1.60;;
37857;SDS011;23695;55.868;37.472;2022-09-24T02:56:32;1.40;;;1.30;;
37857;SDS011;23695;55.868;37.472;2022-09-24T02:58:58;1.60;;;1.17;;
37857;SDS011;23695;55.868;37.472;2022-09-24T03:01:28;4.00;;;1.50;;
37857;SDS011;23695;55.868;37.472;2022-09-24T03:03:55;1.92;;;1.70;;
37857;SDS011;23695;55.868;37.472;2022-09-24T03:06:22;1.70;;;1.60;;
37857;SDS011;23695;55.868;37.472;2022-09-24T03:08:50;3.60;;;1.42;;
37857;SDS011;23695;55.868;37.472;2022-09-24T03:11:19;1.70;;;1.60;;
37857;SDS011;23695;55.868;37.472;2022-09-24T03:16:16;1.77;;;1.67;;
37857;SDS011;23695;55.868;37.472;2022-09-24T03:18:44;1.83;;;1.50;;
37857;SDS011;23695;55.868;37.472;2022-09-24T03:21:12;2.75;;;1.50;;
37857;SDS011;23695;55.868;37.472;2022-09-24T03:23:39;1.65;;;1.55;;
37857;SDS011;23695;55.868;37.472;2022-09-24T03:26:07;2.10;;;1.27;;
37857;SDS011;23695;55.868;37.472;2022-09-24T03:28:34;1.35;;;1.25;;
37857;SDS011;23695;55.868;37.472;2022-09-24T03:31:01;3.20;;;1.20;;
37857;SDS011;23695;55.868;37.472;2022-09-24T03:36:06;1.37;;;1.23;;
37857;SDS011;23695;55.868;37.472;2022-09-24T03:38:33;1.20;;;1.10;;
37857;SDS011;23695;55.868;37.472;2022-09-24T03:41:00;1.30;;;1.20;;
37857;SDS011;23695;55.868;37.472;2022-09-24T03:43:28;1.30;;;1.20;;
37857;SDS011;23695;55.868;37.472;2022-09-24T03:45:55;1.20;;;1.10;;
37857;SDS011;23695;55.868;37.472;2022-09-24T03:48:23;1.88;;;1.20;;
37857;SDS011;23695;55.868;37.472;2022-09-24T03:50:50;1.35;;;1.20;;
37857;SDS011;23695;55.868;37.472;2022-09-24T03:53:17;1.00;;;1.00;;
37857;SDS011;23695;55.868;37.472;2022-09-24T03:55:54;1.27;;;1.00;;
37857;SDS011;23695;55.868;37.472;2022-09-24T03:58:21;1.30;;;1.17;;
37857;SDS011;23695;55.868;37.472;2022-09-24T04:00:52;3.10;;;1.05;;
37857;SDS011;23695;55.868;37.472;2022-09-24T04:05:47;1.42;;;1.10;;
37857;SDS011;23695;55.868;37.472;2022-09-24T04:08:13;2.20;;;1.33;;
37857;SDS011;23695;55.868;37.472;2022-09-24T04:10:40;1.15;;;0.90;;
37857;SDS011;23695;55.868;37.472;2022-09-24T04:13:10;1.20;;;1.20;;
37857;SDS011;23695;55.868;37.472;2022-09-24T04:15:37;4.78;;;1.33;;
37857;SDS011;23695;55.868;37.472;2022-09-24T04:18:04;1.75;;;1.40;;
37857;SDS011;23695;55.868;37.472;2022-09-24T04:20:31;1.40;;;1.30;;
37857;SDS011;23695;55.868;37.472;2022-09-24T04:23:00;1.20;;;1.10;;
37857;SDS011;23695;55.868;37.472;2022-09-24T04:25:27;1.92;;;1.67;;
37857;SDS011;23695;55.868;37.472;2022-09-24T04:27:57;1.30;;;1.20;;
37857;SDS011;23695;55.868;37.472;2022-09-24T04:30:27;1.50;;;1.40;;
37857;SDS011;23695;55.868;37.472;2022-09-24T04:32:55;3.28;;;1.30;;
37857;SDS011;23695;55.868;37.472;2022-09-24T04:35:22;0.93;;;0.80;;
37857;SDS011;23695;55.868;37.472;2022-09-24T04:37:50;2.85;;;1.63;;
37857;SDS011;23695;55.868;37.472;2022-09-24T04:40:17;2.22;;;1.48;;
37857;SDS011;23695;55.868;37.472;2022-09-24T04:42:44;2.70;;;1.30;;
37857;SDS011;23695;55.868;37.472;2022-09-24T04:45:14;1.17;;;1.17;;
37857;SDS011;23695;55.868;37.472;2022-09-24T04:47:46;1.52;;;1.30;;
37857;SDS011;23695;55.868;37.472;2022-09-24T04:50:18;1.73;;;1.30;;
37857;SDS011;23695;55.868;37.472;2022-09-24T04:55:15;1.85;;;1.75;;
37857;SDS011;23695;55.868;37.472;2022-09-24T04:57:43;1.63;;;1.50;;
37857;SDS011;23695;55.868;37.472;2022-09-24T05:00:12;1.52;;;1.42;;
37857;SDS011;23695;55.868;37.472;2022-09-24T05:02:41;1.67;;;1.15;;
37857;SDS011;23695;55.868;37.472;2022-09-24T05:05:08;3.28;;;1.27;;
37857;SDS011;23695;55.868;37.472;2022-09-24T05:07:35;1.70;;;1.38;;
37857;SDS011;23695;55.868;37.472;2022-09-24T05:10:02;1.58;;;1.48;;
37857;SDS011;23695;55.868;37.472;2022-09-24T05:12:29;4.22;;;1.55;;
37857;SDS011;23695;55.868;37.472;2022-09-24T05:14:57;1.25;;;1.15;;
37857;SDS011;23695;55.868;37.472;2022-09-24T05:17:24;1.42;;;1.33;;
37857;SDS011;23695;55.868;37.472;2022-09-24T05:19:51;1.20;;;1.10;;
37857;SDS011;23695;55.868;37.472;2022-09-24T05:22:19;1.42;;;1.33;;
37857;SDS011;23695;55.868;37.472;2022-09-24T05:24:46;1.23;;;1.13;;
37857;SDS011;23695;55.868;37.472;2022-09-24T05:27:13;1.30;;;1.20;;
37857;SDS011;23695;55.868;37.472;2022-09-24T05:29:41;3.15;;;1.30;;
37857;SDS011;23695;55.868;37.472;2022-09-24T05:32:10;1.25;;;1.00;;
37857;SDS011;23695;55.868;37.472;2022-09-24T05:34:37;1.70;;;1.60;;
37857;SDS011;23695;55.868;37.472;2022-09-24T05:37:04;1.48;;;1.38;;
37857;SDS011;23695;55.868;37.472;2022-09-24T05:39:31;1.92;;;1.60;;
37857;SDS011;23695;55.868;37.472;2022-09-24T05:42:00;3.78;;;1.40;;
37857;SDS011;23695;55.868;37.472;2022-09-24T05:44:29;3.70;;;1.40;;
37857;SDS011;23695;55.868;37.472;2022-09-24T05:46:57;1.70;;;1.40;;
37857;SDS011;23695;55.868;37.472;2022-09-24T05:49:24;1.40;;;1.30;;
37857;SDS011;23695;55.868;37.472;2022-09-24T05:51:52;2.25;;;1.20;;
37857;SDS011;23695;55.868;37.472;2022-09-24T05:54:19;2.65;;;1.55;;
37857;SDS011;23695;55.868;37.472;2022-09-24T05:56:46;1.42;;;1.33;;
37857;SDS011;23695;55.868;37.472;2022-09-24T05:59:13;1.35;;;1.25;;
37857;SDS011;23695;55.868;37.472;2022-09-24T06:01:40;1.27;;;1.17;;
37857;SDS011;23695;55.868;37.472;2022-09-24T06:04:08;1.40;;;1.30;;
37857;SDS011;23695;55.868;37.472;2022-09-24T06:06:35;2.00;;;1.88;;
37857;SDS011;23695;55.868;37.472;2022-09-24T06:09:02;1.70;;;1.58;;
37857;SDS011;23695;55.868;37.472;2022-09-24T06:11:30;1.33;;;1.20;;
37857;SDS011;23695;55.868;37.472;2022-09-24T06:14:05;1.83;;;1.20;;
37857;SDS011;23695;55.868;37.472;2022-09-24T06:16:34;2.65;;;2.03;;
37857;SDS011;23695;55.868;37.472;2022-09-24T06:19:02;1.65;;;1.55;;
37857;SDS011;23695;55.868;37.472;2022-09-24T06:21:29;1.33;;;1.17;;
37857;SDS011;23695;55.868;37.472;2022-09-24T06:23:56;1.80;;;1.40;;
37857;SDS011;23695;55.868;37.472;2022-09-24T06:26:23;1.50;;;1.40;;
37857;SDS011;23695;55.868;37.472;2022-09-24T06:28:51;2.47;;;1.75;;
37857;SDS011;23695;55.868;37.472;2022-09-24T06:31:18;2.72;;;1.90;;
37857;SDS011;23695;55.868;37.472;2022-09-24T06:33:46;2.85;;;1.83;;
37857;SDS011;23695;55.868;37.472;2022-09-24T06:36:12;3.03;;;1.63;;
37857;SDS011;23695;55.868;37.472;2022-09-24T06:38:40;1.60;;;1.50;;
37857;SDS011;23695;55.868;37.472;2022-09-24T06:41:07;2.88;;;2.13;;
37857;SDS011;23695;55.868;37.472;2022-09-24T06:43:35;2.00;;;1.73;;
37857;SDS011;23695;55.868;37.472;2022-09-24T06:46:03;1.77;;;1.67;;
37857;SDS011;23695;55.868;37.472;2022-09-24T06:48:30;1.48;;;1.38;;
37857;SDS011;23695;55.868;37.472;2022-09-24T06:50:57;1.70;;;1.48;;
37857;SDS011;23695;55.868;37.472;2022-09-24T06:53:24;1.75;;;1.60;;
37857;SDS011;23695;55.868;37.472;2022-09-24T06:55:54;1.20;;;1.10;;
37857;SDS011;23695;55.868;37.472;2022-09-24T06:58:21;2.42;;;1.35;;
37857;SDS011;23695;55.868;37.472;2022-09-24T07:00:50;1.75;;;1.40;;
37857;SDS011;23695;55.868;37.472;2022-09-24T07:03:19;2.17;;;1.25;;
37857;SDS011;23695;55.868;37.472;2022-09-24T07:05:47;1.55;;;1.45;;
37857;SDS011;23695;55.868;37.472;2022-09-24T07:08:14;1.52;;;1.42;;
37857;SDS011;23695;55.868;37.472;2022-09-24T07:10:41;1.67;;;1.48;;
37857;SDS011;23695;55.868;37.472;2022-09-24T07:13:09;6.43;;;1.45;;
37857;SDS011;23695;55.868;37.472;2022-09-24T07:15:36;3.50;;;1.70;;
37857;SDS011;23695;55.868;37.472;2022-09-24T07:18:04;1.70;;;1.38;;
37857;SDS011;23695;55.868;37.472;2022-09-24T07:20:31;1.55;;;1.45;;
37857;SDS011;23695;55.868;37.472;2022-09-24T07:22:58;1.40;;;1.30;;
37857;SDS011;23695;55.868;37.472;2022-09-24T07:25:25;1.50;;;1.40;;
37857;SDS011;23695;55.868;37.472;2022-09-24T07:27:52;1.77;;;1.67;;
37857;SDS011;23695;55.868;37.472;2022-09-24T07:30:19;3.75;;;1.65;;
37857;SDS011;23695;55.868;37.472;2022-09-24T07:32:46;2.80;;;1.33;;
37857;SDS011;23695;55.868;37.472;2022-09-24T07:35:16;1.60;;;1.50;;
37857;SDS011;23695;55.868;37.472;2022-09-24T07:37:44;1.40;;;1.30;;
37857;SDS011;23695;55.868;37.472;2022-09-24T07:40:11;1.88;;;1.60;;
37857;SDS011;23695;55.868;37.472;2022-09-24T07:42:44;1.52;;;1.40;;
37857;SDS011;23695;55.868;37.472;2022-09-24T07:45:11;2.30;;;1.40;;
37857;SDS011;23695;55.868;37.472;2022-09-24T07:47:39;2.75;;;1.60;;
37857;SDS011;23695;55.868;37.472;2022-09-24T07:50:06;1.60;;;1.50;;
37857;SDS011;23695;55.868;37.472;2022-09-24T07:52:33;4.13;;;1.73;;
37857;SDS011;23695;55.868;37.472;2022-09-24T07:54:59;4.97;;;3.35;;
37857;SDS011;23695;55.868;37.472;2022-09-24T07:57:27;2.15;;;1.50;;
37857;SDS011;23695;55.868;37.472;2022-09-24T07:59:53;2.25;;;1.33;;
37857;SDS011;23695;55.868;37.472;2022-09-24T08:02:20;2.63;;;1.95;;
37857;SDS011;23695;55.868;37.472;2022-09-24T08:04:47;4.13;;;1.85;;
37857;SDS011;23695;55.868;37.472;2022-09-24T08:07:14;2.95;;;2.05;;
37857;SDS011;23695;55.868;37.472;2022-09-24T08:09:41;2.13;;;1.58;;
37857;SDS011;23695;55.868;37.472;2022-09-24T08:12:08;1.60;;;1.38;;
37857;SDS011;23695;55.868;37.472;2022-09-24T08:14:35;3.90;;;1.70;;
37857;SDS011;23695;55.868;37.472;2022-09-24T08:17:02;4.05;;;1.30;;
37857;SDS011;23695;55.868;37.472;2022-09-24T08:19:29;2.08;;;1.40;;
37857;SDS011;23695;55.868;37.472;2022-09-24T08:21:59;2.05;;;1.70;;
37857;SDS011;23695;55.868;37.472;2022-09-24T08:24:26;2.80;;;1.60;;
37857;SDS011;23695;55.868;37.472;2022-09-24T08:26:53;1.50;;;1.40;;
37857;SDS011;23695;55.868;37.472;2022-09-24T08:29:20;2.08;;;1.70;;
37857;SDS011;23695;55.868;37.472;2022-09-24T08:31:47;3.22;;;1.85;;
37857;SDS011;23695;55.868;37.472;2022-09-24T08:34:14;4.47;;;2.00;;
37857;SDS011;23695;55.868;37.472;2022-09-24T08:36:41;2.22;;;1.55;;
37857;SDS011;23695;55.868;37.472;2022-09-24T08:39:09;2.47;;;1.40;;
37857;SDS011;23695;55.868;37.472;2022-09-24T08:41:58;2.95;;;1.55;;
37857;SDS011;23695;55.868;37.472;2022-09-24T08:47:47;2.25;;;1.70;;
37857;SDS011;23695;55.868;37.472;2022-09-24T08:50:06;1.77;;;1.23;;
37857;SDS011;23695;55.868;37.472;2022-09-24T08:57:46;2.00;;;1.75;;
37857;SDS011;23695;55.868;37.472;2022-09-24T09:00:15;2.50;;;1.60;;
37857;SDS011;23695;55.868;37.472;2022-09-24T09:02:44;3.22;;;1.70;;
37857;SDS011;23695;55.868;37.472;2022-09-24T09:05:20;1.90;;;1.70;;
37857;SDS011;23695;55.868;37.472;2022-09-24T09:08:00;2.08;;;1.50;;
37857;SDS011;23695;55.868;37.472;2022-09-24T09:10:30;1.83;;;1.42;;
37857;SDS011;23695;55.868;37.472;2022-09-24T09:15:28;3.67;;;1.83;;
37857;SDS011;23695;55.868;37.472;2022-09-24T09:20:32;2.70;;;1.80;;
37857;SDS011;23695;55.868;37.472;2022-09-24T09:23:05;1.77;;;1.50;;
37857;SDS011;23695;55.868;37.472;2022-09-24T09:25:40;3.08;;;1.60;;
37857;SDS011;23695;55.868;37.472;2022-09-24T09:28:12;3.88;;;2.45;;
37857;SDS011;23695;55.868;37.472;2022-09-24T09:33:23;1.47;;;1.37;;
37857;SDS011;23695;55.868;37.472;2022-09-24T09:38:41;1.88;;;1.70;;
37857;SDS011;23695;55.868;37.472;2022-09-24T09:41:22;1.70;;;1.52;;
37857;SDS011;23695;55.868;37.472;2022-09-24T09:43:58;1.90;;;1.80;;
37857;SDS011;23695;55.868;37.472;2022-09-24T09:46:29;1.52;;;1.42;;
37857;SDS011;23695;55.868;37.472;2022-09-24T09:49:00;1.50;;;1.40;;
37857;SDS011;23695;55.868;37.472;2022-09-24T09:51:29;2.30;;;1.80;;
37857;SDS011;23695;55.868;37.472;2022-09-24T09:53:57;1.60;;;1.50;;
37857;SDS011;23695;55.868;37.472;2022-09-24T09:56:28;2.13;;;1.70;;
37857;SDS011;23695;55.868;37.472;2022-09-24T09:59:30;2.17;;;1.67;;
37857;SDS011;23695;55.868;37.472;2022-09-24T10:01:55;1.50;;;1.40;;
37857;SDS011;23695;55.868;37.472;2022-09-24T10:07:09;2.38;;;1.80;;
37857;SDS011;23695;55.868;37.472;2022-09-24T10:09:37;1.60;;;1.50;;
37857;SDS011;23695;55.868;37.472;2022-09-24T10:12:05;1.67;;;1.58;;
37857;SDS011;23695;55.868;37.472;2022-09-24T10:14:32;1.67;;;1.50;;
37857;SDS011;23695;55.868;37.472;2022-09-24T10:16:59;2.40;;;1.80;;
37857;SDS011;23695;55.868;37.472;2022-09-24T10:19:34;3.00;;;1.42;;
37857;SDS011;23695;55.868;37.472;2022-09-24T10:22:06;1.60;;;1.42;;
37857;SDS011;23695;55.868;37.472;2022-09-24T10:24:34;3.53;;;1.70;;
37857;SDS011;23695;55.868;37.472;2022-09-24T10:27:09;3.00;;;2.13;;
37857;SDS011;23695;55.868;37.472;2022-09-24T10:29:36;2.97;;;1.65;;
37857;SDS011;23695;55.868;37.472;2022-09-24T10:32:22;3.08;;;1.95;;
37857;SDS011;23695;55.868;37.472;2022-09-24T10:34:59;2.97;;;1.85;;
37857;SDS011;23695;55.868;37.472;2022-09-24T10:37:27;3.13;;;1.75;;
37857;SDS011;23695;55.868;37.472;2022-09-24T10:40:01;2.35;;;1.50;;
37857;SDS011;23695;55.868;37.472;2022-09-24T10:42:37;2.28;;;1.95;;
37857;SDS011;23695;55.868;37.472;2022-09-24T10:45:05;1.83;;;1.58;;
37857;SDS011;23695;55.868;37.472;2022-09-24T10:47:39;2.58;;;1.45;;
37857;SDS011;23695;55.868;37.472;2022-09-24T11:03:40;1.40;;;1.30;;
37857;SDS011;23695;55.868;37.472;2022-09-24T11:32:11;5.32;;;2.83;;
37857;SDS011;23695;55.868;37.472;2022-09-24T11:42:57;4.68;;;2.72;;
37857;SDS011;23695;55.868;37.472;2022-09-24T11:53:15;2.20;;;1.90;;
37857;SDS011;23695;55.868;37.472;2022-09-24T11:55:45;1.83;;;1.27;;
37857;SDS011;23695;55.868;37.472;2022-09-24T11:58:19;2.55;;;1.73;;
37857;SDS011;23695;55.868;37.472;2022-09-24T12:00:53;3.78;;;1.70;;
37857;SDS011;23695;55.868;37.472;2022-09-24T12:06:00;3.03;;;2.00;;
37857;SDS011;23695;55.868;37.472;2022-09-24T12:08:30;1.90;;;1.73;;
37857;SDS011;23695;55.868;37.472;2022-09-24T12:13:27;2.75;;;2.05;;
37857;SDS011;23695;55.868;37.472;2022-09-24T12:19:07;3.35;;;2.13;;
37857;SDS011;23695;55.868;37.472;2022-09-24T12:21:17;2.13;;;1.60;;
37857;SDS011;23695;55.868;37.472;2022-09-24T12:23:45;2.20;;;1.92;;
37857;SDS011;23695;55.868;37.472;2022-09-24T12:26:15;2.55;;;1.65;;
37857;SDS011;23695;55.868;37.472;2022-09-24T12:31:44;2.35;;;1.65;;
37857;SDS011;23695;55.868;37.472;2022-09-24T12:37:01;2.83;;;1.75;;
37857;SDS011;23695;55.868;37.472;2022-09-24T12:39:31;2.83;;;1.83;;
37857;SDS011;23695;55.868;37.472;2022-09-24T12:42:05;2.53;;;1.77;;
37857;SDS011;23695;55.868;37.472;2022-09-24T12:44:41;2.40;;;1.88;;
37857;SDS011;23695;55.868;37.472;2022-09-24T12:47:19;3.78;;;1.98;;
37857;SDS011;23695;55.868;37.472;2022-09-24T12:49:47;4.68;;;1.48;;
37857;SDS011;23695;55.868;37.472;2022-09-24T12:52:16;2.20;;;1.63;;
37857;SDS011;23695;55.868;37.472;2022-09-24T12:54:43;3.38;;;2.00;;
37857;SDS011;23695;55.868;37.472;2022-09-24T12:57:21;5.72;;;2.30;;
37857;SDS011;23695;55.868;37.472;2022-09-24T13:02:26;2.70;;;2.28;;
37857;SDS011;23695;55.868;37.472;2022-09-24T13:07:34;4.00;;;2.50;;
37857;SDS011;23695;55.868;37.472;2022-09-24T13:12:37;3.60;;;2.90;;
37857;SDS011;23695;55.868;37.472;2022-09-24T13:15:05;3.15;;;2.17;;
37857;SDS011;23695;55.868;37.472;2022-09-24T13:17:34;4.15;;;3.17;;
37857;SDS011;23695;55.868;37.472;2022-09-24T13:20:05;3.70;;;2.92;;
37857;SDS011;23695;55.868;37.472;2022-09-24T13:22:34;5.30;;;3.92;;
37857;SDS011;23695;55.868;37.472;2022-09-24T13:25:16;3.90;;;2.70;;
37857;SDS011;23695;55.868;37.472;2022-09-24T13:27:53;2.80;;;2.53;;
37857;SDS011;23695;55.868;37.472;2022-09-24T13:30:22;3.53;;;2.80;;
37857;SDS011;23695;55.868;37.472;2022-09-24T13:32:58;5.10;;;2.67;;
37857;SDS011;23695;55.868;37.472;2022-09-24T13:35:33;3.40;;;2.63;;
37857;SDS011;23695;55.868;37.472;2022-09-24T13:40:27;3.30;;;2.38;;
37857;SDS011;23695;55.868;37.472;2022-09-24T13:42:59;2.40;;;2.20;;
37857;SDS011;23695;55.868;37.472;2022-09-24T13:45:28;4.45;;;2.95;;
37857;SDS011;23695;55.868;37.472;2022-09-24T13:47:57;3.97;;;2.67;;
37857;SDS011;23695;55.868;37.472;2022-09-24T13:50:35;3.92;;;2.97;;
37857;SDS011;23695;55.868;37.472;2022-09-24T13:55:42;7.18;;;3.10;;
37857;SDS011;23695;55.868;37.472;2022-09-24T13:58:30;2.70;;;1.92;;
37857;SDS011;23695;55.868;37.472;2022-09-24T14:00:59;3.15;;;2.28;;
37857;SDS011;23695;55.868;37.472;2022-09-24T14:03:28;6.13;;;2.95;;
37857;SDS011;23695;55.868;37.472;2022-09-24T14:05:56;3.67;;;2.53;;
37857;SDS011;23695;55.868;37.472;2022-09-24T14:08:24;3.30;;;2.72;;
37857;SDS011;23695;55.868;37.472;2022-09-24T14:11:06;4.15;;;2.65;;
37857;SDS011;23695;55.868;37.472;2022-09-24T14:13:38;6.10;;;3.35;;
37857;SDS011;23695;55.868;37.472;2022-09-24T14:16:15;3.58;;;2.80;;
37857;SDS011;23695;55.868;37.472;2022-09-24T14:18:43;2.55;;;2.35;;
37857;SDS011;23695;55.868;37.472;2022-09-24T14:21:19;2.65;;;2.35;;
37857;SDS011;23695;55.868;37.472;2022-09-24T14:23:49;5.82;;;2.60;;
37857;SDS011;23695;55.868;37.472;2022-09-24T14:29:04;2.80;;;2.45;;
37857;SDS011;23695;55.868;37.472;2022-09-24T14:31:40;3.72;;;2.85;;
37857;SDS011;23695;55.868;37.472;2022-09-24T14:34:12;15.25;;;3.00;;
37857;SDS011;23695;55.868;37.472;2022-09-24T14:36:45;6.75;;;2.85;;
37857;SDS011;23695;55.868;37.472;2022-09-24T14:39:13;4.35;;;2.92;;
37857;SDS011;23695;55.868;37.472;2022-09-24T14:41:40;4.22;;;2.30;;
37857;SDS011;23695;55.868;37.472;2022-09-24T14:44:12;3.50;;;2.47;;
37857;SDS011;23695;55.868;37.472;2022-09-24T14:46:45;3.15;;;2.22;;
37857;SDS011;23695;55.868;37.472;2022-09-24T14:51:48;6.57;;;2.53;;
37857;SDS011;23695;55.868;37.472;2022-09-24T14:54:34;5.82;;;2.45;;
37857;SDS011;23695;55.868;37.472;2022-09-24T14:57:19;5.65;;;2.60;;
37857;SDS011;23695;55.868;37.472;2022-09-24T14:59:49;4.53;;;3.55;;
37857;SDS011;23695;55.868;37.472;2022-09-24T15:02:20;4.68;;;3.08;;
37857;SDS011;23695;55.868;37.472;2022-09-24T15:04:52;4.43;;;3.22;;
37857;SDS011;23695;55.868;37.472;2022-09-24T15:07:21;4.75;;;3.65;;
37857;SDS011;23695;55.868;37.472;2022-09-24T15:09:51;6.43;;;3.83;;
37857;SDS011;23695;55.868;37.472;2022-09-24T15:12:20;5.22;;;3.35;;
37857;SDS011;23695;55.868;37.472;2022-09-24T15:14:55;6.47;;;4.00;;
37857;SDS011;23695;55.868;37.472;2022-09-24T15:17:23;4.88;;;3.30;;
37857;SDS011;23695;55.868;37.472;2022-09-24T15:19:52;6.05;;;3.17;;
37857;SDS011;23695;55.868;37.472;2022-09-24T15:22:22;10.18;;;4.03;;
37857;SDS011;23695;55.868;37.472;2022-09-24T15:24:52;8.13;;;3.60;;
37857;SDS011;23695;55.868;37.472;2022-09-24T15:27:36;5.13;;;4.00;;
37857;SDS011;23695;55.868;37.472;2022-09-24T15:30:04;6.68;;;3.50;;
37857;SDS011;23695;55.868;37.472;2022-09-24T15:32:33;4.65;;;2.90;;
37857;SDS011;23695;55.868;37.472;2022-09-24T15:35:02;5.10;;;2.90;;
37857;SDS011;23695;55.868;37.472;2022-09-24T15:37:36;3.90;;;2.88;;
37857;SDS011;23695;55.868;37.472;2022-09-24T15:40:05;3.80;;;2.88;;
37857;SDS011;23695;55.868;37.472;2022-09-24T15:42:35;5.20;;;2.42;;
37857;SDS011;23695;55.868;37.472;2022-09-24T15:45:05;4.63;;;2.80;;
37857;SDS011;23695;55.868;37.472;2022-09-24T15:47:34;3.47;;;2.60;;
37857;SDS011;23695;55.868;37.472;2022-09-24T15:50:01;3.45;;;2.60;;
37857;SDS011;23695;55.868;37.472;2022-09-24T15:52:28;2.30;;;2.10;;
37857;SDS011;23695;55.868;37.472;2022-09-24T15:54:57;5.13;;;2.60;;
37857;SDS011;23695;55.868;37.472;2022-09-24T15:57:26;3.55;;;2.50;;
37857;SDS011;23695;55.868;37.472;2022-09-24T15:59:53;5.20;;;2.70;;
37857;SDS011;23695;55.868;37.472;2022-09-24T16:02:22;3.75;;;2.67;;
37857;SDS011;23695;55.868;37.472;2022-09-24T16:04:50;4.78;;;2.70;;
37857;SDS011;23695;55.868;37.472;2022-09-24T16:07:17;3.05;;;2.75;;
37857;SDS011;23695;55.868;37.472;2022-09-24T16:09:44;2.88;;;2.60;;
37857;SDS011;23695;55.868;37.472;2022-09-24T16:12:12;3.67;;;2.60;;
37857;SDS011;23695;55.868;37.472;2022-09-24T16:14:40;5.18;;;2.67;;
37857;SDS011;23695;55.868;37.472;2022-09-24T16:17:07;3.47;;;2.35;;
37857;SDS011;23695;55.868;37.472;2022-09-24T16:19:34;2.50;;;2.00;;
37857;SDS011;23695;55.868;37.472;2022-09-24T16:22:02;5.25;;;2.72;;
37857;SDS011;23695;55.868;37.472;2022-09-24T16:24:32;2.83;;;2.20;;
37857;SDS011;23695;55.868;37.472;2022-09-24T16:27:00;4.13;;;2.53;;
37857;SDS011;23695;55.868;37.472;2022-09-24T16:29:27;2.15;;;1.92;;
37857;SDS011;23695;55.868;37.472;2022-09-24T16:31:53;2.95;;;2.40;;
37857;SDS011;23695;55.868;37.472;2022-09-24T16:34:21;2.85;;;2.40;;
37857;SDS011;23695;55.868;37.472;2022-09-24T16:36:48;3.22;;;2.40;;
37857;SDS011;23695;55.868;37.472;2022-09-24T16:39:15;2.45;;;2.25;;
37857;SDS011;23695;55.868;37.472;2022-09-24T16:41:42;4.13;;;2.42;;
37857;SDS011;23695;55.868;37.472;2022-09-24T16:44:10;4.65;;;2.35;;
37857;SDS011;23695;55.868;37.472;2022-09-24T16:46:41;5.53;;;2.60;;
37857;SDS011;23695;55.868;37.472;2022-09-24T16:49:08;3.72;;;2.50;;
37857;SDS011;23695;55.868;37.472;2022-09-24T16:51:35;6.07;;;2.72;;
37857;SDS011;23695;55.868;37.472;2022-09-24T16:54:03;4.82;;;2.58;;
37857;SDS011;23695;55.868;37.472;2022-09-24T16:56:33;3.33;;;2.40;;
37857;SDS011;23695;55.868;37.472;2022-09-24T16:59:00;6.30;;;3.00;;
37857;SDS011;23695;55.868;37.472;2022-09-24T17:01:27;3.42;;;2.40;;
37857;SDS011;23695;55.868;37.472;2022-09-24T17:03:55;4.47;;;2.40;;
37857;SDS011;23695;55.868;37.472;2022-09-24T17:06:24;3.38;;;2.30;;
37857;SDS011;23695;55.868;37.472;2022-09-24T17:08:51;4.38;;;3.03;;
37857;SDS011;23695;55.868;37.472;2022-09-24T17:11:37;2.95;;;2.30;;